Time;durP1;ratioP1;P1;durP2;ratioP2;P2;SDS_P1;SDS_P2;PMS_P1;PMS_P2;Temp;Humidity;BMP_temperature;BMP_pressure;BME280_temperature;BME280_humidity;BME280_pressure;Samples;Min_cycle;Max_cycle;Signal;HPM_P1;HPM_P2
2023/07/26 00:01:35;;;;;;;8.30;2.95;;;12.20;99.90;;;;;;5132973;27;20317;-49
2023/07/26 00:04:01;;;;;;;5.80;2.88;;;12.40;99.90;;;;;;5133660;27;20099;-49
2023/07/26 00:06:29;;;;;;;6.63;3.17;;;12.40;99.90;;;;;;5132017;27;20038;-54
2023/07/26 00:08:55;;;;;;;7.53;2.78;;;12.40;99.90;;;;;;5132851;27;20057;-48
2023/07/26 00:11:20;;;;;;;10.18;3.20;;;12.30;99.90;;;;;;5133683;27;20053;-48
2023/07/26 00:13:46;;;;;;;6.75;3.42;;;12.90;99.90;;;;;;5131456;27;20039;-50
2023/07/26 00:16:12;;;;;;;6.10;3.00;;;12.50;99.90;;;;;;5133468;27;20163;-48
2023/07/26 00:18:39;;;;;;;7.45;3.30;;;12.30;99.90;;;;;;5131546;27;20047;-49
2023/07/26 00:21:06;;;;;;;6.50;3.30;;;12.40;99.90;;;;;;5132167;27;20451;-54
2023/07/26 00:23:32;;;;;;;5.88;2.90;;;13.00;99.90;;;;;;5130088;27;20049;-52
2023/07/26 00:25:58;;;;;;;8.40;3.10;;;12.40;99.90;;;;;;5131443;27;20050;-52
2023/07/26 00:28:23;;;;;;;8.63;3.28;;;12.30;99.90;;;;;;5131951;27;20065;-48
2023/07/26 00:30:50;;;;;;;7.07;3.10;;;12.10;99.90;;;;;;5130657;27;20045;-48
2023/07/26 00:33:16;;;;;;;6.53;3.35;;;12.10;99.90;;;;;;5130380;27;20396;-50
2023/07/26 00:35:43;;;;;;;9.75;3.78;;;12.20;99.90;;;;;;5132126;27;20050;-49
2023/07/26 00:38:09;;;;;;;6.40;3.15;;;12.10;99.90;;;;;;5133409;27;20277;-48
2023/07/26 00:40:38;;;;;;;5.75;2.83;;;12.00;99.90;;;;;;5137826;27;20753;-49
2023/07/26 00:43:05;;;;;;;6.82;3.50;;;12.00;99.90;;;;;;5135680;27;20038;-48
2023/07/26 00:45:33;;;;;;;7.07;3.40;;;12.10;99.90;;;;;;5136409;27;20047;-49
2023/07/26 00:47:59;;;;;;;7.70;3.60;;;11.80;99.90;;;;;;5135686;27;20422;-52
2023/07/26 00:50:25;;;;;;;6.82;2.97;;;12.10;99.90;;;;;;5136310;27;20045;-53
2023/07/26 00:52:51;;;;;;;8.23;3.20;;;11.90;99.90;;;;;;5136084;27;20038;-53
2023/07/26 00:55:17;;;;;;;4.68;2.75;;;11.80;99.90;;;;;;5135792;27;20078;-52
2023/07/26 00:57:45;;;;;;;6.35;3.60;;;11.70;99.90;;;;;;5134508;27;20131;-51
2023/07/26 01:00:11;;;;;;;7.38;3.60;;;11.80;99.90;;;;;;5135476;27;20833;-51
2023/07/26 01:02:37;;;;;;;7.63;3.25;;;12.00;99.90;;;;;;5116858;27;20508;-49
2023/07/26 01:05:05;;;;;;;6.47;3.38;;;11.70;99.90;;;;;;5134437;27;20149;-48
2023/07/26 01:07:45;;;;;;;8.63;3.88;;;11.80;99.90;;;;;;5109750;27;20133;-51
2023/07/26 01:10:45;;;;;;;8.75;3.47;;;11.90;99.90;;;;;;5136358;27;20403;-49
2023/07/26 01:13:41;;;;;;;6.85;3.40;;;11.90;99.90;;;;;;5113740;27;20127;-52
2023/07/26 01:16:06;;;;;;;7.18;3.33;;;11.90;99.90;;;;;;5135629;27;20046;-51
2023/07/26 01:18:32;;;;;;;7.03;3.25;;;12.00;99.90;;;;;;5135290;27;20115;-48
2023/07/26 01:20:59;;;;;;;6.43;3.45;;;11.80;99.90;;;;;;5134879;27;20127;-51
2023/07/26 01:23:25;;;;;;;7.13;3.75;;;11.80;99.90;;;;;;5117528;27;20050;-51
2023/07/26 01:25:51;;;;;;;8.07;3.83;;;11.90;99.90;;;;;;5136977;27;20127;-50
2023/07/26 01:28:17;;;;;;;9.20;3.58;;;12.00;99.90;;;;;;5134372;27;20453;-52
2023/07/26 01:30:43;;;;;;;9.15;4.68;;;11.90;99.90;;;;;;5135416;27;20050;-48
2023/07/26 01:33:10;;;;;;;8.40;3.60;;;11.90;99.90;;;;;;5116245;27;20235;-51
2023/07/26 01:35:38;;;;;;;10.05;4.35;;;11.90;99.90;;;;;;5136467;27;20455;-53
2023/07/26 01:38:04;;;;;;;9.05;3.88;;;11.80;99.90;;;;;;5135669;27;20074;-52
2023/07/26 01:40:31;;;;;;;6.07;3.38;;;11.60;99.90;;;;;;5135722;27;20038;-53
2023/07/26 01:42:57;;;;;;;7.00;3.78;;;11.50;99.90;;;;;;5134983;27;20095;-54
2023/07/26 01:45:23;;;;;;;8.57;3.50;;;11.70;99.90;;;;;;5135713;27;20045;-52
2023/07/26 01:47:50;;;;;;;7.03;4.07;;;11.50;99.90;;;;;;5135424;27;20030;-52
2023/07/26 01:50:15;;;;;;;7.28;3.50;;;11.30;99.90;;;;;;5133735;27;20050;-53
2023/07/26 01:52:41;;;;;;;12.48;4.18;;;11.50;99.90;;;;;;5134628;27;20104;-51
2023/07/26 01:55:07;;;;;;;8.90;4.05;;;11.30;99.90;;;;;;5134559;27;20068;-52
2023/07/26 01:57:33;;;;;;;9.98;3.90;;;11.30;99.90;;;;;;5134555;27;20482;-52
2023/07/26 01:59:59;;;;;;;9.48;4.25;;;11.50;99.90;;;;;;5133876;27;20065;-52
2023/07/26 02:02:25;;;;;;;7.40;3.35;;;11.50;99.90;;;;;;5134163;27;20474;-51
2023/07/26 02:04:51;;;;;;;12.88;3.85;;;11.30;99.90;;;;;;5115451;27;20438;-52
2023/07/26 02:07:16;;;;;;;9.05;3.67;;;11.10;99.90;;;;;;5111565;27;20498;-53
2023/07/26 02:09:42;;;;;;;7.85;3.70;;;11.40;99.90;;;;;;5134561;27;20522;-52
2023/07/26 02:12:08;;;;;;;10.05;3.90;;;11.30;99.90;;;;;;5135199;27;20364;-54
2023/07/26 02:14:34;;;;;;;7.78;3.65;;;11.20;99.90;;;;;;5134200;27;20046;-53
2023/07/26 02:17:00;;;;;;;9.90;4.35;;;11.30;99.90;;;;;;5134611;27;20050;-52
2023/07/26 02:19:26;;;;;;;7.43;4.00;;;11.30;99.90;;;;;;5133052;27;20384;-54
2023/07/26 02:21:52;;;;;;;8.35;4.15;;;11.00;99.90;;;;;;5134518;27;20491;-53
2023/07/26 02:24:17;;;;;;;6.53;4.13;;;11.10;99.90;;;;;;5133992;27;20066;-52
2023/07/26 02:26:43;;;;;;;6.72;4.22;;;10.90;99.90;;;;;;5135315;27;20042;-52
2023/07/26 02:29:09;;;;;;;12.63;3.85;;;11.00;99.90;;;;;;5134623;27;20363;-51
2023/07/26 02:31:35;;;;;;;7.85;3.42;;;11.00;99.90;;;;;;5114987;27;20487;-52
2023/07/26 02:34:00;;;;;;;7.28;3.70;;;11.00;99.90;;;;;;5134086;27;20399;-47
2023/07/26 02:36:26;;;;;;;7.38;3.90;;;10.80;99.90;;;;;;5132733;27;20087;-50
2023/07/26 02:38:52;;;;;;;7.15;3.60;;;10.80;99.90;;;;;;5134044;27;20042;-51
2023/07/26 02:41:17;;;;;;;8.23;3.65;;;10.90;99.90;;;;;;5132615;27;20045;-51
2023/07/26 02:43:43;;;;;;;9.27;3.55;;;11.00;99.90;;;;;;5135123;27;20047;-52
2023/07/26 02:46:09;;;;;;;6.38;3.47;;;10.80;99.90;;;;;;5135491;27;20035;-49
2023/07/26 02:48:35;;;;;;;10.15;3.53;;;10.60;99.90;;;;;;5133923;27;20045;-49
2023/07/26 02:51:01;;;;;;;7.93;3.75;;;10.70;99.90;;;;;;5116327;27;20046;-50
2023/07/26 02:53:27;;;;;;;5.85;3.45;;;10.60;99.90;;;;;;5134826;27;20198;-48
2023/07/26 02:55:53;;;;;;;6.18;3.72;;;10.40;99.90;;;;;;5134260;27;20494;-48
2023/07/26 02:58:18;;;;;;;7.55;3.83;;;10.50;99.90;;;;;;5133145;27;20058;-50
2023/07/26 03:00:44;;;;;;;6.60;3.30;;;10.40;99.90;;;;;;5132714;27;20409;-50
2023/07/26 03:03:10;;;;;;;5.95;3.65;;;10.40;99.90;;;;;;5132920;27;20038;-52
2023/07/26 03:05:37;;;;;;;7.55;3.80;;;10.60;99.90;;;;;;5134391;27;20365;-49
2023/07/26 03:08:03;;;;;;;10.05;4.05;;;10.20;99.90;;;;;;5133763;27;20135;-48
2023/07/26 03:10:28;;;;;;;7.80;3.75;;;10.40;99.90;;;;;;5133862;27;20125;-53
2023/07/26 03:12:55;;;;;;;8.57;3.45;;;10.40;99.90;;;;;;5135464;27;20618;-50
2023/07/26 03:15:21;;;;;;;7.93;3.85;;;10.40;99.90;;;;;;5132893;27;20161;-50
2023/07/26 03:17:47;;;;;;;10.05;3.78;;;10.20;99.90;;;;;;5133128;27;20049;-51
2023/07/26 03:20:12;;;;;;;6.60;3.83;;;10.40;99.90;;;;;;5133678;27;20366;-51
2023/07/26 03:22:38;;;;;;;6.38;3.58;;;10.30;99.90;;;;;;5134196;27;20163;-51
2023/07/26 03:25:04;;;;;;;7.88;3.83;;;10.30;99.90;;;;;;5133361;27;20046;-50
2023/07/26 03:27:30;;;;;;;9.27;4.28;;;10.50;99.90;;;;;;5133851;27;20591;-53
2023/07/26 03:29:56;;;;;;;7.70;4.15;;;10.30;99.90;;;;;;5132829;27;20152;-51
2023/07/26 03:32:22;;;;;;;12.30;4.60;;;10.50;99.90;;;;;;5133426;27;20050;-51
2023/07/26 03:34:47;;;;;;;11.30;5.07;;;10.50;99.90;;;;;;5131432;27;20035;-50
2023/07/26 03:37:13;;;;;;;8.23;4.60;;;10.60;99.90;;;;;;5132034;27;20415;-52
2023/07/26 03:39:39;;;;;;;8.23;5.07;;;10.70;99.90;;;;;;5132565;27;20150;-52
2023/07/26 03:42:05;;;;;;;9.35;5.10;;;10.60;99.90;;;;;;5133554;27;20043;-54
2023/07/26 03:44:30;;;;;;;9.93;4.68;;;10.90;99.90;;;;;;5132274;27;20046;-50
2023/07/26 03:46:56;;;;;;;12.40;5.13;;;10.80;99.90;;;;;;5131377;27;20046;-53
2023/07/26 03:49:23;;;;;;;6.70;4.97;;;10.70;99.90;;;;;;5131844;27;20484;-50
2023/07/26 03:51:48;;;;;;;9.85;5.13;;;10.90;99.90;;;;;;5131657;27;20052;-49
2023/07/26 03:54:14;;;;;;;11.00;4.90;;;10.70;99.90;;;;;;5133228;27;20419;-50
2023/07/26 03:56:40;;;;;;;9.25;4.75;;;11.00;99.90;;;;;;5132286;27;20061;-50
2023/07/26 03:59:05;;;;;;;10.23;5.38;;;11.00;99.90;;;;;;5133066;27;20045;-54
2023/07/26 04:01:31;;;;;;;9.48;4.88;;;10.90;99.90;;;;;;5132633;27;20091;-49
2023/07/26 04:03:57;;;;;;;9.20;5.20;;;11.10;99.90;;;;;;5131131;27;20038;-52
2023/07/26 04:06:22;;;;;;;9.45;5.05;;;11.00;99.90;;;;;;5132311;27;20417;-51
2023/07/26 04:08:48;;;;;;;11.40;5.60;;;11.10;99.90;;;;;;5133501;27;20087;-53
2023/07/26 04:11:14;;;;;;;13.50;5.97;;;10.90;99.90;;;;;;5133022;27;20045;-51
2023/07/26 04:13:40;;;;;;;10.10;5.40;;;11.20;99.90;;;;;;5131745;27;20614;-53
2023/07/26 04:16:19;;;;;;;12.00;5.57;;;11.30;99.90;;;;;;5112528;27;20034;-52
2023/07/26 04:18:45;;;;;;;9.93;4.80;;;11.20;99.90;;;;;;5131151;27;20034;-51
2023/07/26 04:21:18;;;;;;;12.52;5.22;;;11.00;99.90;;;;;;5112540;27;20043;-52
2023/07/26 04:23:45;;;;;;;10.25;5.18;;;11.40;99.90;;;;;;5130740;27;20039;-50
2023/07/26 04:26:11;;;;;;;13.45;4.97;;;11.20;99.90;;;;;;5114333;27;20039;-53
2023/07/26 04:28:38;;;;;;;9.85;4.82;;;11.10;99.90;;;;;;5132048;27;20415;-51
2023/07/26 04:31:03;;;;;;;11.30;5.50;;;11.30;99.90;;;;;;5133516;27;20035;-51
2023/07/26 04:33:30;;;;;;;10.52;4.15;;;11.20;99.90;;;;;;5112458;27;20592;-51
2023/07/26 04:35:57;;;;;;;7.80;4.10;;;11.30;99.90;;;;;;5132614;27;20046;-51
2023/07/26 04:38:23;;;;;;;9.05;4.60;;;11.40;99.90;;;;;;5132380;27;20042;-48
2023/07/26 04:40:49;;;;;;;7.90;3.92;;;11.40;99.90;;;;;;5114999;27;20122;-50
2023/07/26 04:43:21;;;;;;;9.68;4.22;;;11.40;99.90;;;;;;5134376;27;20042;-51
2023/07/26 04:45:48;;;;;;;9.18;3.72;;;11.70;99.90;;;;;;5132393;27;20038;-51
2023/07/26 04:48:14;;;;;;;7.50;4.03;;;11.80;99.90;;;;;;5107938;27;20075;-51
2023/07/26 04:50:41;;;;;;;6.63;4.00;;;11.70;99.90;;;;;;5132215;27;20161;-49
2023/07/26 04:53:06;;;;;;;7.30;3.40;;;12.00;99.90;;;;;;5131980;27;20566;-49
2023/07/26 04:55:32;;;;;;;6.57;3.30;;;12.00;99.90;;;;;;5133098;27;20042;-52
2023/07/26 04:57:58;;;;;;;9.38;3.40;;;11.90;99.90;;;;;;5130608;27;20294;-52
2023/07/26 05:00:24;;;;;;;7.15;3.30;;;12.10;99.90;;;;;;5131189;27;20049;-52
2023/07/26 05:02:49;;;;;;;7.40;3.33;;;12.10;99.90;;;;;;5132765;27;20526;-53
2023/07/26 05:05:15;;;;;;;8.70;2.63;;;12.30;99.90;;;;;;5131495;27;20541;-53
2023/07/26 05:07:41;;;;;;;8.32;3.00;;;12.30;99.90;;;;;;5130778;27;20125;-52
2023/07/26 05:10:07;;;;;;;6.22;2.70;;;12.50;99.90;;;;;;5131062;27;20054;-51
2023/07/26 05:12:33;;;;;;;6.57;2.90;;;12.60;99.90;;;;;;5133289;27;20195;-54
2023/07/26 05:14:58;;;;;;;7.55;2.90;;;12.50;99.90;;;;;;5132317;27;20848;-56
2023/07/26 05:17:24;;;;;;;6.53;2.65;;;12.40;99.90;;;;;;5131072;27;20031;-56
2023/07/26 05:19:50;;;;;;;6.53;2.30;;;12.50;99.90;;;;;;5132323;27;20035;-57
2023/07/26 05:22:16;;;;;;;7.72;2.30;;;12.60;99.90;;;;;;5132076;27;20476;-57
2023/07/26 05:24:41;;;;;;;4.32;2.10;;;12.50;99.90;;;;;;5132025;27;20046;-56
2023/07/26 05:27:07;;;;;;;5.63;2.00;;;12.50;99.90;;;;;;5135114;27;20296;-54
2023/07/26 05:29:33;;;;;;;5.88;2.20;;;12.40;99.90;;;;;;5135194;27;20348;-55
2023/07/26 05:31:59;;;;;;;6.78;2.22;;;12.40;99.90;;;;;;5134955;27;20043;-54
2023/07/26 05:34:24;;;;;;;8.55;2.30;;;12.50;99.90;;;;;;5133646;27;20240;-53
2023/07/26 05:36:51;;;;;;;5.22;2.30;;;12.50;99.90;;;;;;5134977;27;20070;-53
2023/07/26 05:39:18;;;;;;;8.05;2.47;;;12.50;99.90;;;;;;5134994;27;20035;-54
2023/07/26 05:41:43;;;;;;;5.68;2.22;;;12.50;99.90;;;;;;5134142;27;20045;-54
2023/07/26 05:44:09;;;;;;;8.57;2.92;;;12.50;99.90;;;;;;5136269;27;20515;-50
2023/07/26 05:46:35;;;;;;;8.10;2.60;;;12.40;99.90;;;;;;5134203;27;20771;-51
2023/07/26 05:49:00;;;;;;;9.23;2.90;;;13.30;99.90;;;;;;5134592;27;20043;-51
2023/07/26 05:51:26;;;;;;;7.57;2.97;;;12.40;99.90;;;;;;5135883;27;20042;-53
2023/07/26 05:53:52;;;;;;;5.30;2.50;;;12.30;99.90;;;;;;5134875;27;20038;-54
2023/07/26 05:56:18;;;;;;;7.93;2.80;;;12.60;99.90;;;;;;5134117;27;20146;-52
2023/07/26 05:58:43;;;;;;;5.82;3.17;;;12.40;99.90;;;;;;5135392;27;20511;-52
2023/07/26 06:01:09;;;;;;;6.18;2.65;;;12.60;99.90;;;;;;5135651;27;20042;-53
2023/07/26 06:03:35;;;;;;;9.10;3.03;;;12.50;99.90;;;;;;5115692;27;20042;-51
2023/07/26 06:06:01;;;;;;;9.68;2.92;;;12.40;99.90;;;;;;5133556;27;20122;-54
2023/07/26 06:08:27;;;;;;;7.05;2.88;;;12.50;99.90;;;;;;5136222;27;20105;-54
2023/07/26 06:10:52;;;;;;;10.40;2.92;;;12.50;99.90;;;;;;5135899;27;20503;-54
2023/07/26 06:13:18;;;;;;;6.15;2.40;;;12.30;99.90;;;;;;5136559;27;20042;-53
2023/07/26 06:15:44;;;;;;;10.55;3.10;;;12.50;99.90;;;;;;5133569;27;20034;-51
2023/07/26 06:18:10;;;;;;;11.43;3.20;;;12.50;99.90;;;;;;5115831;27;20556;-53
2023/07/26 06:20:36;;;;;;;8.27;3.10;;;12.40;99.90;;;;;;5133797;27;20035;-54
2023/07/26 06:23:01;;;;;;;8.20;2.83;;;12.40;99.90;;;;;;5132977;27;20038;-53
2023/07/26 06:25:27;;;;;;;9.27;3.25;;;12.50;99.90;;;;;;5133755;27;20064;-54
2023/07/26 06:27:53;;;;;;;10.30;3.00;;;12.50;99.90;;;;;;5134872;27;20050;-55
2023/07/26 06:30:18;;;;;;;5.78;2.40;;;12.60;99.90;;;;;;5133194;27;20039;-53
2023/07/26 06:32:44;;;;;;;6.55;2.95;;;12.60;99.90;;;;;;5114799;27;20042;-52
2023/07/26 06:35:10;;;;;;;5.78;2.85;;;12.70;99.90;;;;;;5132600;27;20062;-54
2023/07/26 06:37:36;;;;;;;5.28;2.28;;;12.10;99.90;;;;;;5133018;27;20088;-56
2023/07/26 06:40:03;;;;;;;7.60;2.75;;;12.70;99.90;;;;;;5132635;27;20101;-55
2023/07/26 06:42:29;;;;;;;6.20;3.10;;;12.90;99.90;;;;;;5134605;27;20053;-53
2023/07/26 06:44:54;;;;;;;5.97;2.60;;;12.80;99.90;;;;;;5134442;27;20133;-57
2023/07/26 06:47:20;;;;;;;7.97;2.85;;;12.80;99.90;;;;;;5133126;27;20426;-55
2023/07/26 06:49:46;;;;;;;7.63;2.65;;;12.70;99.90;;;;;;5132252;27;20066;-56
2023/07/26 06:52:12;;;;;;;6.32;2.75;;;12.50;99.90;;;;;;5133515;27;20099;-55
2023/07/26 06:54:38;;;;;;;8.63;2.60;;;12.70;99.90;;;;;;5132051;27;20042;-55
2023/07/26 06:57:04;;;;;;;6.82;2.55;;;12.40;99.90;;;;;;5132855;27;20044;-55
2023/07/26 06:59:30;;;;;;;7.63;2.65;;;12.60;99.90;;;;;;5132470;27;20503;-54
2023/07/26 07:01:56;;;;;;;6.00;2.83;;;12.60;99.90;;;;;;5133366;27;20042;-55
2023/07/26 07:04:22;;;;;;;6.45;2.50;;;12.70;99.90;;;;;;5131301;27;20521;-57
2023/07/26 07:06:48;;;;;;;6.63;3.10;;;12.60;99.90;;;;;;5132741;27;20046;-55
2023/07/26 07:09:13;;;;;;;6.68;2.53;;;12.70;99.90;;;;;;5131240;27;20082;-57
2023/07/26 07:11:39;;;;;;;15.70;2.80;;;12.80;99.90;;;;;;5116717;27;20334;-57
2023/07/26 07:14:05;;;;;;;6.38;2.67;;;12.90;99.90;;;;;;5133859;27;20479;-56
2023/07/26 07:16:32;;;;;;;10.27;2.90;;;13.00;99.90;;;;;;5131846;27;20161;-57
2023/07/26 07:18:58;;;;;;;9.25;2.90;;;13.50;99.90;;;;;;5113217;27;20049;-57
2023/07/26 07:21:23;;;;;;;8.05;2.65;;;13.70;99.90;;;;;;5134510;27;20030;-57
2023/07/26 07:23:50;;;;;;;8.77;2.92;;;13.70;99.90;;;;;;5132522;27;20141;-57
2023/07/26 07:26:17;;;;;;;6.32;2.80;;;13.90;99.90;;;;;;5133851;27;20082;-57
2023/07/26 07:28:43;;;;;;;6.30;2.22;;;14.30;99.90;;;;;;5113366;27;20051;-57
2023/07/26 07:31:09;;;;;;;5.18;1.90;;;15.50;99.90;;;;;;5132076;27;20088;-58
2023/07/26 07:33:34;;;;;;;4.20;1.70;;;16.50;99.90;;;;;;5131899;27;20233;-57
2023/07/26 07:36:00;;;;;;;16.98;5.43;;;16.60;99.90;;;;;;5131026;27;20078;-58
2023/07/26 07:38:26;;;;;;;5.18;1.92;;;16.70;99.90;;;;;;5113292;27;20587;-57
2023/07/26 07:40:52;;;;;;;6.75;2.45;;;17.80;99.90;;;;;;5132570;27;20461;-57
2023/07/26 07:43:17;;;;;;;7.32;2.83;;;18.60;99.90;;;;;;5132673;27;20491;-57
2023/07/26 07:45:43;;;;;;;3.83;1.90;;;19.10;99.90;;;;;;5133293;27;20038;-57
2023/07/26 07:48:09;;;;;;;3.90;1.83;;;19.40;99.90;;;;;;5130934;27;20242;-58
2023/07/26 07:50:36;;;;;;;5.68;2.17;;;19.90;99.90;;;;;;5132035;27;20131;-57
2023/07/26 07:53:03;;;;;;;7.40;2.25;;;20.30;99.90;;;;;;5133043;27;20046;-57
2023/07/26 07:55:31;;;;;;;4.97;1.90;;;21.20;99.90;;;;;;5133151;27;20198;-57
2023/07/26 07:58:01;;;;;;;5.72;2.58;;;22.00;99.90;;;;;;5131360;27;20073;-57
2023/07/26 08:00:27;;;;;;;3.95;1.60;;;21.90;99.90;;;;;;5132280;27;20111;-56
2023/07/26 08:02:53;;;;;;;5.35;2.20;;;22.20;99.90;;;;;;5132287;27;20429;-57
2023/07/26 08:05:18;;;;;;;4.93;1.92;;;21.80;99.90;;;;;;5131024;27;20495;-56
2023/07/26 08:07:44;;;;;;;4.28;1.80;;;21.00;99.90;;;;;;5131902;27;20038;-56
2023/07/26 08:10:10;;;;;;;3.13;1.40;;;20.30;99.90;;;;;;5131766;27;20038;-56
2023/07/26 08:12:36;;;;;;;3.35;1.50;;;19.90;99.90;;;;;;5132100;27;20358;-56
2023/07/26 08:15:02;;;;;;;3.33;1.40;;;19.10;99.90;;;;;;5133973;27;20045;-56
2023/07/26 08:17:27;;;;;;;9.55;3.53;;;18.60;99.90;;;;;;5133456;27;20053;-56
2023/07/26 08:19:53;;;;;;;6.97;1.90;;;17.80;99.90;;;;;;5113084;27;20065;-56
2023/07/26 08:22:19;;;;;;;5.45;2.25;;;17.30;99.90;;;;;;5132179;27;20058;-55
2023/07/26 08:24:45;;;;;;;6.70;1.95;;;16.90;99.90;;;;;;5132345;27;20039;-57
2023/07/26 08:27:10;;;;;;;6.13;2.00;;;18.80;99.90;;;;;;5132411;27;20079;-56
2023/07/26 08:29:36;;;;;;;12.43;2.97;;;16.80;99.90;;;;;;5132282;27;20038;-56
2023/07/26 08:32:02;;;;;;;11.43;2.95;;;17.20;99.90;;;;;;5133108;27;20036;-55
2023/07/26 08:34:28;;;;;;;12.40;2.83;;;17.50;99.90;;;;;;5134765;27;20392;-55
2023/07/26 08:36:53;;;;;;;6.57;2.55;;;17.90;99.90;;;;;;5132152;27;20475;-56
2023/07/26 08:39:19;;;;;;;4.80;1.95;;;18.40;99.90;;;;;;5132408;27;20034;-55
2023/07/26 08:41:45;;;;;;;4.95;1.95;;;18.30;99.90;;;;;;5132859;27;20078;-55
2023/07/26 08:44:12;;;;;;;6.43;2.38;;;18.10;99.90;;;;;;5135463;27;20140;-55
2023/07/26 08:46:40;;;;;;;4.38;2.10;;;18.00;99.90;;;;;;5132935;27;20039;-56
2023/07/26 08:49:07;;;;;;;3.58;1.92;;;18.00;99.90;;;;;;5133366;27;20406;-56
2023/07/26 08:51:34;;;;;;;5.20;2.10;;;17.60;99.90;;;;;;5132968;27;20085;-56
2023/07/26 08:54:00;;;;;;;5.90;2.28;;;17.70;99.90;;;;;;5114349;27;20198;-55
2023/07/26 08:56:29;;;;;;;7.35;2.60;;;17.30;99.90;;;;;;5131945;27;20039;-55
2023/07/26 08:58:55;;;;;;;9.15;3.88;;;17.10;99.90;;;;;;5132428;27;20062;-55
2023/07/26 09:01:22;;;;;;;7.15;3.13;;;17.10;99.90;;;;;;5136161;27;20038;-55
2023/07/26 09:03:48;;;;;;;8.82;3.03;;;17.00;99.90;;;;;;5136665;27;20047;-54
2023/07/26 09:06:14;;;;;;;4.43;2.22;;;16.90;99.90;;;;;;5135043;27;20369;-54
2023/07/26 09:08:42;;;;;;;4.30;2.45;;;17.30;99.90;;;;;;5135272;27;20052;-55
2023/07/26 09:11:27;;;;;;;4.93;2.80;;;17.80;99.90;;;;;;5135202;27;20035;-57
2023/07/26 09:13:59;;;;;;;8.70;3.40;;;18.00;99.90;;;;;;5118705;27;20027;-54
2023/07/26 09:16:28;;;;;;;4.63;2.40;;;18.80;99.90;;;;;;5135302;27;20039;-55
2023/07/26 09:19:01;;;;;;;8.02;2.67;;;19.20;99.90;;;;;;5134537;27;20356;-53
2023/07/26 09:21:32;;;;;;;4.68;2.42;;;19.30;99.90;;;;;;5135012;27;20564;-55
2023/07/26 09:23:59;;;;;;;6.20;2.43;;;19.50;99.90;;;;;;5136479;27;20042;-55
2023/07/26 09:26:42;;;;;;;4.88;2.25;;;19.80;99.90;;;;;;5136732;27;20411;-54
2023/07/26 09:29:13;;;;;;;5.70;2.55;;;20.00;99.90;;;;;;5136060;27;20511;-56
2023/07/26 09:31:43;;;;;;;8.18;2.72;;;20.10;99.90;;;;;;5135316;27;20479;-56
2023/07/26 09:34:18;;;;;;;6.90;2.92;;;19.60;99.90;;;;;;5134252;27;20241;-56
2023/07/26 09:36:47;;;;;;;6.15;2.72;;;18.70;99.90;;;;;;5135164;27;20039;-55
2023/07/26 09:39:14;;;;;;;5.93;2.72;;;17.50;99.90;;;;;;5136489;27;20074;-55
2023/07/26 09:41:40;;;;;;;5.38;2.38;;;16.80;99.90;;;;;;5116249;27;20043;-52
2023/07/26 09:44:07;;;;;;;6.22;3.10;;;16.30;99.90;;;;;;5135580;27;20220;-55
2023/07/26 09:46:55;;;;;;;5.85;2.80;;;15.90;99.90;;;;;;5134493;27;20091;-55
2023/07/26 09:49:24;;;;;;;5.18;2.47;;;16.20;99.90;;;;;;5135523;27;20053;-56
2023/07/26 09:51:54;;;;;;;5.10;2.53;;;16.40;99.90;;;;;;5135551;27;20051;-55
2023/07/26 09:54:23;;;;;;;5.72;2.17;;;16.70;99.90;;;;;;5135172;27;20117;-56
2023/07/26 09:56:53;;;;;;;5.18;2.10;;;16.60;99.90;;;;;;5136682;27;20050;-56
2023/07/26 09:59:20;;;;;;;4.78;1.92;;;16.90;99.90;;;;;;5134557;27;20051;-57
2023/07/26 10:01:47;;;;;;;4.55;2.13;;;17.10;99.90;;;;;;5136687;27;20347;-56
2023/07/26 10:04:22;;;;;;;6.00;2.40;;;17.40;99.90;;;;;;5115404;27;20277;-56
2023/07/26 10:06:51;;;;;;;4.45;1.73;;;17.40;99.90;;;;;;5117926;27;20050;-57
2023/07/26 10:09:16;;;;;;;5.88;1.95;;;17.30;99.90;;;;;;5136616;27;20038;-56
2023/07/26 10:11:43;;;;;;;5.40;2.50;;;17.30;99.90;;;;;;5134315;27;20411;-56
2023/07/26 10:14:14;;;;;;;4.85;1.98;;;17.50;99.90;;;;;;5136695;27;20110;-56
2023/07/26 10:16:39;;;;;;;3.33;1.73;;;17.80;99.90;;;;;;5135239;27;20122;-57
2023/07/26 10:19:07;;;;;;;4.60;1.50;;;18.20;99.90;;;;;;5134132;27;20047;-56
2023/07/26 10:21:35;;;;;;;3.85;1.65;;;18.40;99.90;;;;;;5135376;27;20531;-56
2023/07/26 10:24:03;;;;;;;5.80;2.45;;;18.90;99.90;;;;;;5134939;27;20495;-57
2023/07/26 10:26:32;;;;;;;3.95;1.67;;;19.00;99.90;;;;;;5135175;27;20087;-56
2023/07/26 10:29:02;;;;;;;4.65;1.77;;;19.30;99.90;;;;;;5132673;27;20050;-56
2023/07/26 10:31:29;;;;;;;4.68;1.92;;;19.30;99.90;;;;;;5117723;27;20129;-56
2023/07/26 10:33:55;;;;;;;5.97;2.22;;;19.50;99.90;;;;;;5133030;27;20035;-57
2023/07/26 10:36:26;;;;;;;3.92;1.63;;;19.50;99.90;;;;;;5134326;27;20087;-56
2023/07/26 10:38:52;;;;;;;4.95;1.90;;;19.90;99.90;;;;;;5133118;27;20038;-56
2023/07/26 10:41:26;;;;;;;5.88;2.40;;;20.30;99.90;;;;;;5133057;27;20054;-56
2023/07/26 10:44:07;;;;;;;5.95;1.88;;;20.10;99.90;;;;;;5133585;27;20047;-57
2023/07/26 10:47:02;;;;;;;4.93;2.10;;;19.80;99.90;;;;;;5131902;27;20051;-57
2023/07/26 10:49:29;;;;;;;6.18;1.88;;;19.40;99.90;;;;;;5122154;27;20433;-56
2023/07/26 10:52:01;;;;;;;5.50;2.38;;;19.70;99.90;;;;;;5133282;27;20050;-56
2023/07/26 10:54:43;;;;;;;4.47;1.88;;;19.90;99.90;;;;;;5133753;27;20192;-55
2023/07/26 10:57:31;;;;;;;3.53;1.73;;;19.80;99.90;;;;;;5131387;27;20043;-56
2023/07/26 11:00:06;;;;;;;3.67;1.80;;;20.10;99.90;;;;;;5131873;27;20058;-55
2023/07/26 11:02:39;;;;;;;3.65;1.45;;;19.80;99.90;;;;;;5132476;27;20099;-54
2023/07/26 11:05:15;;;;;;;3.55;1.50;;;19.60;99.90;;;;;;5133281;27;20046;-55
2023/07/26 11:08:00;;;;;;;3.00;1.25;;;19.10;99.90;;;;;;5132211;27;20050;-53
2023/07/26 11:10:30;;;;;;;2.80;1.08;;;18.20;99.90;;;;;;5131217;27;20098;-55
2023/07/26 11:13:18;;;;;;;3.85;1.50;;;17.50;99.90;;;;;;5131925;27;20464;-55
2023/07/26 11:15:46;;;;;;;4.38;1.50;;;16.90;99.90;;;;;;5133825;27;20030;-53
2023/07/26 11:18:14;;;;;;;4.30;1.48;;;16.70;99.90;;;;;;5132896;27;20464;-58
2023/07/26 11:20:45;;;;;;;3.92;1.00;;;16.40;99.90;;;;;;5133067;27;20395;-55
2023/07/26 11:23:20;;;;;;;4.70;1.45;;;16.10;99.90;;;;;;5135113;27;20334;-55
2023/07/26 11:25:47;;;;;;;3.58;1.30;;;15.90;99.90;;;;;;5134413;27;20388;-55
2023/07/26 11:28:13;;;;;;;5.05;1.38;;;15.80;99.90;;;;;;5133533;27;20428;-55
2023/07/26 11:30:41;;;;;;;3.17;1.30;;;15.60;99.90;;;;;;5131703;27;20047;-54
2023/07/26 11:33:08;;;;;;;4.38;1.30;;;15.80;99.90;;;;;;5132079;27;20038;-54
2023/07/26 11:35:42;;;;;;;4.03;1.30;;;15.60;99.90;;;;;;5113076;27;20301;-55
2023/07/26 11:38:14;;;;;;;3.72;1.30;;;15.90;99.90;;;;;;5131491;27;20449;-54
2023/07/26 11:40:41;;;;;;;3.55;1.42;;;16.00;99.90;;;;;;5130024;27;20049;-57
2023/07/26 11:43:07;;;;;;;8.02;1.85;;;15.90;99.90;;;;;;5113495;27;20038;-56
2023/07/26 11:45:40;;;;;;;6.07;2.30;;;15.70;99.90;;;;;;5134681;27;20549;-53
2023/07/26 11:48:09;;;;;;;5.75;2.47;;;15.40;99.90;;;;;;5131734;27;20147;-58
2023/07/26 11:50:36;;;;;;;3.92;2.00;;;17.40;99.90;;;;;;5114434;27;20039;-56
2023/07/26 11:53:06;;;;;;;5.60;1.90;;;15.30;99.90;;;;;;5133668;27;20038;-55
2023/07/26 11:55:33;;;;;;;5.03;2.10;;;15.50;99.90;;;;;;5133703;27;20045;-57
2023/07/26 11:58:07;;;;;;;4.45;1.88;;;16.10;99.90;;;;;;5132141;27;20062;-56
2023/07/26 12:00:35;;;;;;;5.13;2.05;;;16.60;99.90;;;;;;5133885;27;20035;-56
2023/07/26 12:03:02;;;;;;;6.30;2.20;;;17.00;99.90;;;;;;5131795;27;20054;-56
2023/07/26 12:05:28;;;;;;;5.68;2.05;;;17.30;99.90;;;;;;5132925;27;20035;-56
2023/07/26 12:07:58;;;;;;;6.40;2.15;;;17.40;99.90;;;;;;5113026;27;20117;-56
2023/07/26 12:10:28;;;;;;;5.95;1.60;;;17.60;99.90;;;;;;5132154;27;20567;-57
2023/07/26 12:12:54;;;;;;;5.25;2.10;;;18.00;99.90;;;;;;5130883;27;20358;-57
2023/07/26 12:15:20;;;;;;;5.40;1.83;;;18.10;99.90;;;;;;5132585;27;20505;-56
2023/07/26 12:18:02;;;;;;;5.32;1.83;;;18.00;99.90;;;;;;5132918;27;20035;-57
2023/07/26 12:20:29;;;;;;;3.50;1.48;;;18.10;99.90;;;;;;5130961;27;20084;-57
2023/07/26 12:22:58;;;;;;;3.45;1.60;;;17.80;99.90;;;;;;5112499;27;20058;-57
2023/07/26 12:25:38;;;;;;;3.75;1.40;;;18.10;99.90;;;;;;5131292;27;20534;-57
2023/07/26 12:28:09;;;;;;;3.30;1.25;;;18.20;99.90;;;;;;5132213;27;20046;-56
2023/07/26 12:30:35;;;;;;;;;;;18.70;99.90;;;;;;5133324;27;20102;-57
2023/07/26 12:33:14;;;;;;;3.83;1.20;;;18.70;99.90;;;;;;5130543;27;20427;-57
2023/07/26 12:35:45;;;;;;;4.88;1.40;;;18.60;99.90;;;;;;5137193;27;20060;-57
2023/07/26 12:38:17;;;;;;;5.67;2.33;;;18.50;99.90;;;;;;5136596;27;20062;-57
2023/07/26 12:40:44;;;;;;;3.65;1.45;;;18.30;99.90;;;;;;5136860;27;20104;-57
2023/07/26 12:43:21;;;;;;;3.13;1.52;;;18.50;99.90;;;;;;5136939;27;20034;-57
2023/07/26 12:45:47;;;;;;;3.35;1.30;;;18.90;99.90;;;;;;5137761;27;20053;-56
2023/07/26 12:48:13;;;;;;;5.28;1.40;;;19.40;99.90;;;;;;5136991;27;20047;-58